Sunburg, Minnesota
Current Conditions -  °F | °C
As of 12:35 AM on Friday 31 Oct 2014 (Local Time) from KBDH Reporting Station
Clear Clear  
Wind Chill: 21°   Ceiling: Unl
Heat Index: 30°   Visibility: 10mi
Dew Point: 18°   Wind: 12mph
Humidity: 60%   Direction: 350°N
Pressure: 30.47"   Gusts: NA
Location:  45.35°N, 95.24°W
Report Text: KBDH 310535Z AUTO 35010KT 10SM CLR M01/M08 A3047 RMK AO2
Loading
Personal Weather Stations






























Interactive Weather Map
Tropical Storm Tracking
New forecast layout! Learn more

10-Day Weather Forecast

Advertisements
Track Severe Weather on mobile